sensor_id;sensor_type;location;lat;lon;timestamp;temperature;humidity
74940;HTU21D;63505;45.226;37.908;2023-11-21T00:01:42;4.22;87.92
74940;HTU21D;63505;45.226;37.908;2023-11-21T00:04:08;4.20;87.90
74940;HTU21D;63505;45.226;37.908;2023-11-21T00:06:34;4.19;87.93
74940;HTU21D;63505;45.226;37.908;2023-11-21T00:09:00;4.20;87.99
74940;HTU21D;63505;45.226;37.908;2023-11-21T00:11:26;4.22;87.99
74940;HTU21D;63505;45.226;37.908;2023-11-21T00:13:52;4.24;88.00
74940;HTU21D;63505;45.226;37.908;2023-11-21T00:16:18;4.27;88.02
74940;HTU21D;63505;45.226;37.908;2023-11-21T00:18:44;4.28;88.01
74940;HTU21D;63505;45.226;37.908;2023-11-21T00:21:12;4.30;87.98
74940;HTU21D;63505;45.226;37.908;2023-11-21T00:23:38;4.31;88.00
74940;HTU21D;63505;45.226;37.908;2023-11-21T00:26:04;4.34;88.01
74940;HTU21D;63505;45.226;37.908;2023-11-21T00:28:30;4.36;87.99
74940;HTU21D;63505;45.226;37.908;2023-11-21T00:30:56;4.38;87.96
74940;HTU21D;63505;45.226;37.908;2023-11-21T00:33:22;4.38;87.93
74940;HTU21D;63505;45.226;37.908;2023-11-21T00:35:48;4.38;87.95
74940;HTU21D;63505;45.226;37.908;2023-11-21T00:38:14;4.39;87.96
74940;HTU21D;63505;45.226;37.908;2023-11-21T00:40:40;4.42;87.98
74940;HTU21D;63505;45.226;37.908;2023-11-21T00:43:05;4.44;87.96
74940;HTU21D;63505;45.226;37.908;2023-11-21T00:45:31;4.44;87.96
74940;HTU21D;63505;45.226;37.908;2023-11-21T00:47:57;4.45;87.96
74940;HTU21D;63505;45.226;37.908;2023-11-21T00:50:23;4.47;87.97
74940;HTU21D;63505;45.226;37.908;2023-11-21T00:52:49;4.49;87.96
74940;HTU21D;63505;45.226;37.908;2023-11-21T00:55:17;4.50;87.96
74940;HTU21D;63505;45.226;37.908;2023-11-21T00:57:43;4.52;87.96
74940;HTU21D;63505;45.226;37.908;2023-11-21T01:00:10;4.52;87.95
74940;HTU21D;63505;45.226;37.908;2023-11-21T01:02:44;4.50;87.95
74940;HTU21D;63505;45.226;37.908;2023-11-21T01:05:11;4.49;87.94
74940;HTU21D;63505;45.226;37.908;2023-11-21T01:07:36;4.48;87.92
74940;HTU21D;63505;45.226;37.908;2023-11-21T01:10:03;4.46;87.98
74940;HTU21D;63505;45.226;37.908;2023-11-21T01:12:37;4.45;87.97
74940;HTU21D;63505;45.226;37.908;2023-11-21T01:15:05;4.46;87.99
74940;HTU21D;63505;45.226;37.908;2023-11-21T01:17:33;4.46;88.03
74940;HTU21D;63505;45.226;37.908;2023-11-21T01:20:00;4.48;88.04
74940;HTU21D;63505;45.226;37.908;2023-11-21T01:22:26;4.49;88.03
74940;HTU21D;63505;45.226;37.908;2023-11-21T01:24:53;4.48;88.02
74940;HTU21D;63505;45.226;37.908;2023-11-21T01:27:19;4.47;88.02
74940;HTU21D;63505;45.226;37.908;2023-11-21T01:29:45;4.46;88.04
74940;HTU21D;63505;45.226;37.908;2023-11-21T01:32:11;4.47;88.07
74940;HTU21D;63505;45.226;37.908;2023-11-21T01:34:37;4.48;88.09
74940;HTU21D;63505;45.226;37.908;2023-11-21T01:37:03;4.48;88.10
74940;HTU21D;63505;45.226;37.908;2023-11-21T01:39:31;4.49;88.10
74940;HTU21D;63505;45.226;37.908;2023-11-21T01:41:57;4.48;88.09
74940;HTU21D;63505;45.226;37.908;2023-11-21T01:44:26;4.50;88.09
74940;HTU21D;63505;45.226;37.908;2023-11-21T01:46:52;4.51;88.10
74940;HTU21D;63505;45.226;37.908;2023-11-21T01:49:19;4.52;88.11
74940;HTU21D;63505;45.226;37.908;2023-11-21T01:51:48;4.56;88.10
74940;HTU21D;63505;45.226;37.908;2023-11-21T01:54:18;4.56;88.10
74940;HTU21D;63505;45.226;37.908;2023-11-21T01:56:46;4.57;88.06
74940;HTU21D;63505;45.226;37.908;2023-11-21T01:59:14;4.59;88.06
74940;HTU21D;63505;45.226;37.908;2023-11-21T02:01:43;4.60;88.05
74940;HTU21D;63505;45.226;37.908;2023-11-21T02:04:09;4.62;88.03
74940;HTU21D;63505;45.226;37.908;2023-11-21T02:06:35;4.62;88.01
74940;HTU21D;63505;45.226;37.908;2023-11-21T02:09:01;4.63;88.02
74940;HTU21D;63505;45.226;37.908;2023-11-21T02:11:30;4.66;88.03
74940;HTU21D;63505;45.226;37.908;2023-11-21T02:13:59;4.67;87.99
74940;HTU21D;63505;45.226;37.908;2023-11-21T02:16:27;4.66;88.01
74940;HTU21D;63505;45.226;37.908;2023-11-21T02:18:53;4.67;88.00
74940;HTU21D;63505;45.226;37.908;2023-11-21T02:21:19;4.67;87.97
74940;HTU21D;63505;45.226;37.908;2023-11-21T02:23:45;4.67;88.01
74940;HTU21D;63505;45.226;37.908;2023-11-21T02:26:13;4.68;88.00
74940;HTU21D;63505;45.226;37.908;2023-11-21T02:28:40;4.67;87.99
74940;HTU21D;63505;45.226;37.908;2023-11-21T02:31:06;4.67;88.02
74940;HTU21D;63505;45.226;37.908;2023-11-21T02:33:33;4.71;88.03
74940;HTU21D;63505;45.226;37.908;2023-11-21T02:36:03;4.69;88.01
74940;HTU21D;63505;45.226;37.908;2023-11-21T02:38:29;4.68;88.01
74940;HTU21D;63505;45.226;37.908;2023-11-21T02:40:57;4.68;88.02
74940;HTU21D;63505;45.226;37.908;2023-11-21T02:43:25;4.69;88.02
74940;HTU21D;63505;45.226;37.908;2023-11-21T02:45:51;4.69;88.05
74940;HTU21D;63505;45.226;37.908;2023-11-21T02:48:16;4.71;88.02
74940;HTU21D;63505;45.226;37.908;2023-11-21T02:50:42;4.71;88.04
74940;HTU21D;63505;45.226;37.908;2023-11-21T02:53:09;4.72;88.01
74940;HTU21D;63505;45.226;37.908;2023-11-21T02:55:36;4.74;88.02
74940;HTU21D;63505;45.226;37.908;2023-11-21T02:58:02;4.74;88.01
74940;HTU21D;63505;45.226;37.908;2023-11-21T03:00:32;4.74;88.02
74940;HTU21D;63505;45.226;37.908;2023-11-21T03:02:58;4.76;88.04
74940;HTU21D;63505;45.226;37.908;2023-11-21T03:05:25;4.77;88.01
74940;HTU21D;63505;45.226;37.908;2023-11-21T03:07:51;4.79;88.02
74940;HTU21D;63505;45.226;37.908;2023-11-21T03:10:18;4.80;87.98
74940;HTU21D;63505;45.226;37.908;2023-11-21T03:12:44;4.80;87.98
74940;HTU21D;63505;45.226;37.908;2023-11-21T03:15:10;4.80;87.96
74940;HTU21D;63505;45.226;37.908;2023-11-21T03:17:36;4.80;87.98
74940;HTU21D;63505;45.226;37.908;2023-11-21T03:20:03;4.81;87.99
74940;HTU21D;63505;45.226;37.908;2023-11-21T03:22:29;4.80;87.97
74940;HTU21D;63505;45.226;37.908;2023-11-21T03:24:55;4.81;87.98
74940;HTU21D;63505;45.226;37.908;2023-11-21T03:27:21;4.81;87.98
74940;HTU21D;63505;45.226;37.908;2023-11-21T03:29:48;4.84;88.02
74940;HTU21D;63505;45.226;37.908;2023-11-21T03:32:16;4.87;88.02
74940;HTU21D;63505;45.226;37.908;2023-11-21T03:34:58;4.89;87.99
74940;HTU21D;63505;45.226;37.908;2023-11-21T03:37:24;4.91;87.93
74940;HTU21D;63505;45.226;37.908;2023-11-21T03:39:55;4.92;87.90
74940;HTU21D;63505;45.226;37.908;2023-11-21T03:42:21;4.96;87.91
74940;HTU21D;63505;45.226;37.908;2023-11-21T03:44:48;5.03;87.96
74940;HTU21D;63505;45.226;37.908;2023-11-21T03:47:14;5.04;87.85
74940;HTU21D;63505;45.226;37.908;2023-11-21T03:49:40;5.03;87.79
74940;HTU21D;63505;45.226;37.908;2023-11-21T03:52:06;5.02;87.80
74940;HTU21D;63505;45.226;37.908;2023-11-21T03:54:33;5.00;87.80
74940;HTU21D;63505;45.226;37.908;2023-11-21T03:56:59;5.00;87.82
74940;HTU21D;63505;45.226;37.908;2023-11-21T03:59:25;4.98;87.83
74940;HTU21D;63505;45.226;37.908;2023-11-21T04:01:51;4.97;87.85
74940;HTU21D;63505;45.226;37.908;2023-11-21T04:04:17;4.97;87.90
74940;HTU21D;63505;45.226;37.908;2023-11-21T04:06:43;4.98;88.02
74940;HTU21D;63505;45.226;37.908;2023-11-21T04:09:09;5.04;87.89
74940;HTU21D;63505;45.226;37.908;2023-11-21T04:11:35;5.04;87.86
74940;HTU21D;63505;45.226;37.908;2023-11-21T04:14:01;5.03;87.85
74940;HTU21D;63505;45.226;37.908;2023-11-21T04:16:26;5.02;87.86
74940;HTU21D;63505;45.226;37.908;2023-11-21T04:18:52;5.00;87.87
74940;HTU21D;63505;45.226;37.908;2023-11-21T04:21:18;4.98;87.86
74940;HTU21D;63505;45.226;37.908;2023-11-21T04:23:44;4.98;87.92
74940;HTU21D;63505;45.226;37.908;2023-11-21T04:26:10;5.00;88.02
74940;HTU21D;63505;45.226;37.908;2023-11-21T04:28:36;5.04;87.92
74940;HTU21D;63505;45.226;37.908;2023-11-21T04:31:02;5.04;87.88
74940;HTU21D;63505;45.226;37.908;2023-11-21T04:33:27;5.11;87.97
74940;HTU21D;63505;45.226;37.908;2023-11-21T04:35:54;5.13;87.82
74940;HTU21D;63505;45.226;37.908;2023-11-21T04:38:20;5.11;87.77
74940;HTU21D;63505;45.226;37.908;2023-11-21T04:40:46;5.09;87.76
74940;HTU21D;63505;45.226;37.908;2023-11-21T04:43:12;5.09;87.78
74940;HTU21D;63505;45.226;37.908;2023-11-21T04:45:38;5.08;87.80
74940;HTU21D;63505;45.226;37.908;2023-11-21T04:48:04;5.08;87.80
74940;HTU21D;63505;45.226;37.908;2023-11-21T04:50:31;5.09;87.79
74940;HTU21D;63505;45.226;37.908;2023-11-21T04:52:56;5.07;87.80
74940;HTU21D;63505;45.226;37.908;2023-11-21T04:55:22;5.07;87.78
74940;HTU21D;63505;45.226;37.908;2023-11-21T04:57:48;5.04;87.83
74940;HTU21D;63505;45.226;37.908;2023-11-21T05:00:14;5.04;87.85
74940;HTU21D;63505;45.226;37.908;2023-11-21T05:02:41;5.04;87.85
74940;HTU21D;63505;45.226;37.908;2023-11-21T05:05:07;5.03;87.84
74940;HTU21D;63505;45.226;37.908;2023-11-21T05:07:35;5.02;87.85
74940;HTU21D;63505;45.226;37.908;2023-11-21T05:10:01;5.03;87.86
74940;HTU21D;63505;45.226;37.908;2023-11-21T05:12:31;5.03;87.85
74940;HTU21D;63505;45.226;37.908;2023-11-21T05:15:07;5.02;87.83
74940;HTU21D;63505;45.226;37.908;2023-11-21T05:17:37;5.02;87.84
74940;HTU21D;63505;45.226;37.908;2023-11-21T05:20:05;5.02;87.86
74940;HTU21D;63505;45.226;37.908;2023-11-21T05:22:34;5.03;87.86
74940;HTU21D;63505;45.226;37.908;2023-11-21T05:25:01;5.05;87.88
74940;HTU21D;63505;45.226;37.908;2023-11-21T05:27:28;5.06;87.84
74940;HTU21D;63505;45.226;37.908;2023-11-21T05:29:54;5.07;87.80
74940;HTU21D;63505;45.226;37.908;2023-11-21T05:32:20;5.08;87.83
74940;HTU21D;63505;45.226;37.908;2023-11-21T05:34:46;5.09;87.77
74940;HTU21D;63505;45.226;37.908;2023-11-21T05:37:12;5.10;87.76
74940;HTU21D;63505;45.226;37.908;2023-11-21T05:39:38;5.11;87.74
74940;HTU21D;63505;45.226;37.908;2023-11-21T05:42:04;5.12;87.73
74940;HTU21D;63505;45.226;37.908;2023-11-21T05:44:30;5.11;87.72
74940;HTU21D;63505;45.226;37.908;2023-11-21T05:46:56;5.13;87.74
74940;HTU21D;63505;45.226;37.908;2023-11-21T05:49:24;5.13;87.69
74940;HTU21D;63505;45.226;37.908;2023-11-21T05:51:54;5.15;87.68
74940;HTU21D;63505;45.226;37.908;2023-11-21T05:54:20;5.13;87.67
74940;HTU21D;63505;45.226;37.908;2023-11-21T05:56:46;5.13;87.69
74940;HTU21D;63505;45.226;37.908;2023-11-21T05:59:12;5.15;87.67
74940;HTU21D;63505;45.226;37.908;2023-11-21T06:01:38;5.16;87.67
74940;HTU21D;63505;45.226;37.908;2023-11-21T06:04:05;5.15;87.65
74940;HTU21D;63505;45.226;37.908;2023-11-21T06:06:31;5.15;87.69
74940;HTU21D;63505;45.226;37.908;2023-11-21T06:08:57;5.18;87.67
74940;HTU21D;63505;45.226;37.908;2023-11-21T06:11:23;5.18;87.63
74940;HTU21D;63505;45.226;37.908;2023-11-21T06:13:50;5.17;87.63
74940;HTU21D;63505;45.226;37.908;2023-11-21T06:16:16;5.18;87.64
74940;HTU21D;63505;45.226;37.908;2023-11-21T06:18:45;5.18;87.64
74940;HTU21D;63505;45.226;37.908;2023-11-21T06:21:12;5.20;87.65
74940;HTU21D;63505;45.226;37.908;2023-11-21T06:23:37;5.20;87.61
74940;HTU21D;63505;45.226;37.908;2023-11-21T06:26:05;5.20;87.61
74940;HTU21D;63505;45.226;37.908;2023-11-21T06:28:32;5.21;87.60
74940;HTU21D;63505;45.226;37.908;2023-11-21T06:30:58;5.21;87.58
74940;HTU21D;63505;45.226;37.908;2023-11-21T06:33:24;5.22;87.58
74940;HTU21D;63505;45.226;37.908;2023-11-21T06:35:53;5.22;87.55
74940;HTU21D;63505;45.226;37.908;2023-11-21T06:38:18;5.20;87.57
74940;HTU21D;63505;45.226;37.908;2023-11-21T06:40:45;5.21;87.56
74940;HTU21D;63505;45.226;37.908;2023-11-21T06:43:11;5.20;87.54
74940;HTU21D;63505;45.226;37.908;2023-11-21T06:45:37;5.20;87.54
74940;HTU21D;63505;45.226;37.908;2023-11-21T06:48:04;5.21;87.54
74940;HTU21D;63505;45.226;37.908;2023-11-21T06:50:30;5.22;87.55
74940;HTU21D;63505;45.226;37.908;2023-11-21T06:52:56;5.25;87.54
74940;HTU21D;63505;45.226;37.908;2023-11-21T06:55:22;5.27;87.50
74940;HTU21D;63505;45.226;37.908;2023-11-21T06:57:48;5.30;87.51
74940;HTU21D;63505;45.226;37.908;2023-11-21T07:00:16;5.32;87.43
74940;HTU21D;63505;45.226;37.908;2023-11-21T07:02:43;5.31;87.41
74940;HTU21D;63505;45.226;37.908;2023-11-21T07:05:09;5.30;87.38
74940;HTU21D;63505;45.226;37.908;2023-11-21T07:07:35;5.28;87.38
74940;HTU21D;63505;45.226;37.908;2023-11-21T07:10:03;5.28;87.35
74940;HTU21D;63505;45.226;37.908;2023-11-21T07:12:32;5.30;87.35
74940;HTU21D;63505;45.226;37.908;2023-11-21T07:14:59;5.28;87.34
74940;HTU21D;63505;45.226;37.908;2023-11-21T07:17:25;5.28;87.35
74940;HTU21D;63505;45.226;37.908;2023-11-21T07:19:50;5.30;87.35
74940;HTU21D;63505;45.226;37.908;2023-11-21T07:22:17;5.31;87.34
74940;HTU21D;63505;45.226;37.908;2023-11-21T07:24:50;5.31;87.34
74940;HTU21D;63505;45.226;37.908;2023-11-21T07:27:19;5.32;87.34
74940;HTU21D;63505;45.226;37.908;2023-11-21T07:29:45;5.33;87.34
74940;HTU21D;63505;45.226;37.908;2023-11-21T07:32:11;5.32;87.32
74940;HTU21D;63505;45.226;37.908;2023-11-21T07:34:38;5.36;87.35
74940;HTU21D;63505;45.226;37.908;2023-11-21T07:37:04;5.39;87.32
74940;HTU21D;63505;45.226;37.908;2023-11-21T07:39:30;5.38;87.29
74940;HTU21D;63505;45.226;37.908;2023-11-21T07:41:56;5.40;87.25
74940;HTU21D;63505;45.226;37.908;2023-11-21T07:44:23;5.38;87.22
74940;HTU21D;63505;45.226;37.908;2023-11-21T07:46:49;5.38;87.22
74940;HTU21D;63505;45.226;37.908;2023-11-21T07:49:15;5.37;87.22
74940;HTU21D;63505;45.226;37.908;2023-11-21T07:51:46;5.36;87.24
74940;HTU21D;63505;45.226;37.908;2023-11-21T07:54:12;5.37;87.28
74940;HTU21D;63505;45.226;37.908;2023-11-21T07:56:38;5.39;87.25
74940;HTU21D;63505;45.226;37.908;2023-11-21T07:59:03;5.38;87.22
74940;HTU21D;63505;45.226;37.908;2023-11-21T08:01:30;5.37;87.22
74940;HTU21D;63505;45.226;37.908;2023-11-21T08:03:56;5.38;87.25
74940;HTU21D;63505;45.226;37.908;2023-11-21T08:06:27;5.39;87.26
74940;HTU21D;63505;45.226;37.908;2023-11-21T08:08:54;5.41;87.25
74940;HTU21D;63505;45.226;37.908;2023-11-21T08:11:19;5.43;87.20
74940;HTU21D;63505;45.226;37.908;2023-11-21T08:13:46;5.45;87.16
74940;HTU21D;63505;45.226;37.908;2023-11-21T08:16:12;5.43;87.17
74940;HTU21D;63505;45.226;37.908;2023-11-21T08:18:38;5.45;87.15
74940;HTU21D;63505;45.226;37.908;2023-11-21T08:21:05;5.43;87.14
74940;HTU21D;63505;45.226;37.908;2023-11-21T08:23:31;5.42;87.09
74940;HTU21D;63505;45.226;37.908;2023-11-21T08:25:58;5.41;87.12
74940;HTU21D;63505;45.226;37.908;2023-11-21T08:28:24;5.39;87.10
74940;HTU21D;63505;45.226;37.908;2023-11-21T08:30:54;5.39;87.13
74940;HTU21D;63505;45.226;37.908;2023-11-21T08:33:20;5.41;87.12
74940;HTU21D;63505;45.226;37.908;2023-11-21T08:35:46;5.45;87.09
74940;HTU21D;63505;45.226;37.908;2023-11-21T08:38:12;5.45;87.09
74940;HTU21D;63505;45.226;37.908;2023-11-21T08:40:38;5.46;87.04
74940;HTU21D;63505;45.226;37.908;2023-11-21T08:43:04;5.47;87.03
74940;HTU21D;63505;45.226;37.908;2023-11-21T08:45:31;5.49;87.01
74940;HTU21D;63505;45.226;37.908;2023-11-21T08:48:00;5.49;87.01
74940;HTU21D;63505;45.226;37.908;2023-11-21T08:50:26;5.51;86.99
74940;HTU21D;63505;45.226;37.908;2023-11-21T08:52:52;5.54;86.98
74940;HTU21D;63505;45.226;37.908;2023-11-21T08:55:18;5.59;86.95
74940;HTU21D;63505;45.226;37.908;2023-11-21T08:57:45;5.62;86.93
74940;HTU21D;63505;45.226;37.908;2023-11-21T09:00:12;5.64;86.86
74940;HTU21D;63505;45.226;37.908;2023-11-21T09:02:41;5.63;86.75
74940;HTU21D;63505;45.226;37.908;2023-11-21T09:05:08;5.57;86.80
74940;HTU21D;63505;45.226;37.908;2023-11-21T09:07:38;5.54;86.81
74940;HTU21D;63505;45.226;37.908;2023-11-21T09:10:05;5.50;86.83
74940;HTU21D;63505;45.226;37.908;2023-11-21T09:12:35;5.49;86.87
74940;HTU21D;63505;45.226;37.908;2023-11-21T09:15:04;5.47;86.93
74940;HTU21D;63505;45.226;37.908;2023-11-21T09:17:31;5.47;86.94
74940;HTU21D;63505;45.226;37.908;2023-11-21T09:19:57;5.47;86.94
74940;HTU21D;63505;45.226;37.908;2023-11-21T09:22:23;5.49;86.93
74940;HTU21D;63505;45.226;37.908;2023-11-21T09:24:55;5.50;86.92
74940;HTU21D;63505;45.226;37.908;2023-11-21T09:27:23;5.53;86.90
74940;HTU21D;63505;45.226;37.908;2023-11-21T09:29:49;5.57;86.87
74940;HTU21D;63505;45.226;37.908;2023-11-21T09:32:16;5.62;86.83
74940;HTU21D;63505;45.226;37.908;2023-11-21T09:34:44;5.64;86.77
74940;HTU21D;63505;45.226;37.908;2023-11-21T09:37:10;5.66;86.70
74940;HTU21D;63505;45.226;37.908;2023-11-21T09:39:36;5.66;86.69
74940;HTU21D;63505;45.226;37.908;2023-11-21T09:42:10;5.65;86.66
74940;HTU21D;63505;45.226;37.908;2023-11-21T09:44:54;5.66;86.64
74940;HTU21D;63505;45.226;37.908;2023-11-21T09:47:22;5.67;86.65
74940;HTU21D;63505;45.226;37.908;2023-11-21T09:49:48;5.66;86.63
74940;HTU21D;63505;45.226;37.908;2023-11-21T09:52:27;5.66;86.64
74940;HTU21D;63505;45.226;37.908;2023-11-21T09:54:54;5.68;86.66
74940;HTU21D;63505;45.226;37.908;2023-11-21T09:57:24;5.69;86.64
74940;HTU21D;63505;45.226;37.908;2023-11-21T09:59:54;5.67;86.64
74940;HTU21D;63505;45.226;37.908;2023-11-21T10:02:28;5.67;86.61
74940;HTU21D;63505;45.226;37.908;2023-11-21T10:04:59;5.68;86.64
74940;HTU21D;63505;45.226;37.908;2023-11-21T10:07:26;5.68;86.61
74940;HTU21D;63505;45.226;37.908;2023-11-21T10:09:53;5.70;86.63
74940;HTU21D;63505;45.226;37.908;2023-11-21T10:12:19;5.74;86.58
74940;HTU21D;63505;45.226;37.908;2023-11-21T10:14:48;5.77;86.54
74940;HTU21D;63505;45.226;37.908;2023-11-21T10:17:15;5.79;86.53
74940;HTU21D;63505;45.226;37.908;2023-11-21T10:19:46;5.82;86.47
74940;HTU21D;63505;45.226;37.908;2023-11-21T10:22:14;5.80;86.43
74940;HTU21D;63505;45.226;37.908;2023-11-21T10:24:40;5.78;86.41
74940;HTU21D;63505;45.226;37.908;2023-11-21T10:27:08;5.78;86.42
74940;HTU21D;63505;45.226;37.908;2023-11-21T10:29:34;5.77;86.39
74940;HTU21D;63505;45.226;37.908;2023-11-21T10:32:04;5.77;86.41
74940;HTU21D;63505;45.226;37.908;2023-11-21T10:34:31;5.75;86.40
74940;HTU21D;63505;45.226;37.908;2023-11-21T10:36:57;5.75;86.41
74940;HTU21D;63505;45.226;37.908;2023-11-21T10:39:24;5.75;86.41
74940;HTU21D;63505;45.226;37.908;2023-11-21T10:41:56;5.76;86.39
74940;HTU21D;63505;45.226;37.908;2023-11-21T10:44:22;5.76;86.38
74940;HTU21D;63505;45.226;37.908;2023-11-21T10:46:53;5.75;86.35
74940;HTU21D;63505;45.226;37.908;2023-11-21T10:49:25;5.75;86.33
74940;HTU21D;63505;45.226;37.908;2023-11-21T10:51:56;5.76;86.33
74940;HTU21D;63505;45.226;37.908;2023-11-21T10:54:25;5.79;86.38
74940;HTU21D;63505;45.226;37.908;2023-11-21T10:56:59;5.86;86.31
74940;HTU21D;63505;45.226;37.908;2023-11-21T10:59:29;5.91;86.22
74940;HTU21D;63505;45.226;37.908;2023-11-21T11:01:58;5.94;86.15
74940;HTU21D;63505;45.226;37.908;2023-11-21T11:04:27;5.97;86.09
74940;HTU21D;63505;45.226;37.908;2023-11-21T11:06:58;5.99;86.05
74940;HTU21D;63505;45.226;37.908;2023-11-21T11:09:30;6.01;86.00
74940;HTU21D;63505;45.226;37.908;2023-11-21T11:11:59;6.02;85.96
74940;HTU21D;63505;45.226;37.908;2023-11-21T11:14:27;6.06;85.94
74940;HTU21D;63505;45.226;37.908;2023-11-21T11:16:54;6.09;85.87
74940;HTU21D;63505;45.226;37.908;2023-11-21T11:19:25;6.09;85.79
74940;HTU21D;63505;45.226;37.908;2023-11-21T11:27:39;6.10;85.71
74940;HTU21D;63505;45.226;37.908;2023-11-21T11:35:30;6.09;85.58
74940;HTU21D;63505;45.226;37.908;2023-11-21T11:37:59;6.10;85.54
74940;HTU21D;63505;45.226;37.908;2023-11-21T11:40:45;6.15;85.55
74940;HTU21D;63505;45.226;37.908;2023-11-21T11:43:12;6.24;85.44
74940;HTU21D;63505;45.226;37.908;2023-11-21T11:45:38;6.30;85.36
74940;HTU21D;63505;45.226;37.908;2023-11-21T11:48:08;6.42;85.32
74940;HTU21D;63505;45.226;37.908;2023-11-21T11:51:00;6.49;85.10
74940;HTU21D;63505;45.226;37.908;2023-11-21T11:53:35;6.56;85.05
74940;HTU21D;63505;45.226;37.908;2023-11-21T11:56:27;6.69;84.97
74940;HTU21D;63505;45.226;37.908;2023-11-21T11:58:56;6.81;84.80
74940;HTU21D;63505;45.226;37.908;2023-11-21T12:01:27;6.96;84.68
74940;HTU21D;63505;45.226;37.908;2023-11-21T12:06:46;7.32;84.24
74940;HTU21D;63505;45.226;37.908;2023-11-21T12:09:22;7.33;83.92
74940;HTU21D;63505;45.226;37.908;2023-11-21T12:11:50;7.23;83.85
74940;HTU21D;63505;45.226;37.908;2023-11-21T12:14:16;7.09;83.88
74940;HTU21D;63505;45.226;37.908;2023-11-21T12:16:43;6.91;83.99
74940;HTU21D;63505;45.226;37.908;2023-11-21T12:19:12;6.73;84.10
74940;HTU21D;63505;45.226;37.908;2023-11-21T12:21:39;6.57;84.26
74940;HTU21D;63505;45.226;37.908;2023-11-21T12:24:09;6.44;84.44
74940;HTU21D;63505;45.226;37.908;2023-11-21T12:26:37;6.36;84.58
74940;HTU21D;63505;45.226;37.908;2023-11-21T12:29:04;6.28;84.70
74940;HTU21D;63505;45.226;37.908;2023-11-21T12:31:30;6.24;84.74
74940;HTU21D;63505;45.226;37.908;2023-11-21T12:33:56;6.19;84.77
74940;HTU21D;63505;45.226;37.908;2023-11-21T12:36:23;6.15;84.78
74940;HTU21D;63505;45.226;37.908;2023-11-21T12:38:51;6.11;84.78
74940;HTU21D;63505;45.226;37.908;2023-11-21T12:41:17;6.08;84.75
74940;HTU21D;63505;45.226;37.908;2023-11-21T12:43:43;6.05;84.74
74940;HTU21D;63505;45.226;37.908;2023-11-21T12:46:10;6.01;84.72
74940;HTU21D;63505;45.226;37.908;2023-11-21T12:48:42;5.99;84.68
74940;HTU21D;63505;45.226;37.908;2023-11-21T12:51:10;5.96;84.68
74940;HTU21D;63505;45.226;37.908;2023-11-21T12:53:45;5.94;84.64
74940;HTU21D;63505;45.226;37.908;2023-11-21T12:56:13;5.91;84.59
74940;HTU21D;63505;45.226;37.908;2023-11-21T12:58:40;5.84;84.58
74940;HTU21D;63505;45.226;37.908;2023-11-21T13:01:12;5.79;84.58
74940;HTU21D;63505;45.226;37.908;2023-11-21T13:03:44;5.76;84.60
74940;HTU21D;63505;45.226;37.908;2023-11-21T13:06:11;5.68;84.59
74940;HTU21D;63505;45.226;37.908;2023-11-21T13:08:38;5.66;84.61
74940;HTU21D;63505;45.226;37.908;2023-11-21T13:11:05;5.62;84.60
74940;HTU21D;63505;45.226;37.908;2023-11-21T13:13:31;5.57;84.61
74940;HTU21D;63505;45.226;37.908;2023-11-21T13:16:02;5.51;84.57
74940;HTU21D;63505;45.226;37.908;2023-11-21T13:18:32;5.48;84.63
74940;HTU21D;63505;45.226;37.908;2023-11-21T13:20:59;5.43;84.61
74940;HTU21D;63505;45.226;37.908;2023-11-21T13:23:26;5.42;84.62
74940;HTU21D;63505;45.226;37.908;2023-11-21T13:25:53;5.41;84.57
74940;HTU21D;63505;45.226;37.908;2023-11-21T13:28:19;5.37;84.58
74940;HTU21D;63505;45.226;37.908;2023-11-21T13:30:48;5.37;84.58
74940;HTU21D;63505;45.226;37.908;2023-11-21T13:33:14;5.34;84.55
74940;HTU21D;63505;45.226;37.908;2023-11-21T13:35:53;5.33;84.52
74940;HTU21D;63505;45.226;37.908;2023-11-21T13:38:21;5.31;84.47
74940;HTU21D;63505;45.226;37.908;2023-11-21T13:40:52;5.30;84.49
74940;HTU21D;63505;45.226;37.908;2023-11-21T13:43:21;5.28;84.45
74940;HTU21D;63505;45.226;37.908;2023-11-21T13:45:50;5.27;84.45
74940;HTU21D;63505;45.226;37.908;2023-11-21T13:48:21;5.30;84.45
74940;HTU21D;63505;45.226;37.908;2023-11-21T13:50:54;5.30;84.42
74940;HTU21D;63505;45.226;37.908;2023-11-21T13:53:49;5.30;84.39
74940;HTU21D;63505;45.226;37.908;2023-11-21T13:56:19;5.31;84.35
74940;HTU21D;63505;45.226;37.908;2023-11-21T13:58:53;5.30;84.31
74940;HTU21D;63505;45.226;37.908;2023-11-21T14:01:25;5.30;84.29
74940;HTU21D;63505;45.226;37.908;2023-11-21T14:03:58;5.28;84.26
74940;HTU21D;63505;45.226;37.908;2023-11-21T14:06:34;5.27;84.26
74940;HTU21D;63505;45.226;37.908;2023-11-21T14:09:08;5.28;84.26
74940;HTU21D;63505;45.226;37.908;2023-11-21T14:11:33;5.28;84.23
74940;HTU21D;63505;45.226;37.908;2023-11-21T14:14:00;5.30;84.22
74940;HTU21D;63505;45.226;37.908;2023-11-21T14:16:26;5.28;84.21
74940;HTU21D;63505;45.226;37.908;2023-11-21T14:18:51;5.30;84.19
74940;HTU21D;63505;45.226;37.908;2023-11-21T14:21:23;5.28;84.15
74940;HTU21D;63505;45.226;37.908;2023-11-21T14:23:48;5.30;84.18
74940;HTU21D;63505;45.226;37.908;2023-11-21T14:26:15;5.30;84.18
74940;HTU21D;63505;45.226;37.908;2023-11-21T14:28:42;5.30;84.15
74940;HTU21D;63505;45.226;37.908;2023-11-21T14:31:08;5.28;84.16
74940;HTU21D;63505;45.226;37.908;2023-11-21T14:33:40;5.28;84.13
74940;HTU21D;63505;45.226;37.908;2023-11-21T14:36:07;5.27;84.13
74940;HTU21D;63505;45.226;37.908;2023-11-21T14:38:36;5.25;84.14
74940;HTU21D;63505;45.226;37.908;2023-11-21T14:41:05;5.26;84.13
74940;HTU21D;63505;45.226;37.908;2023-11-21T14:43:34;5.26;84.12
74940;HTU21D;63505;45.226;37.908;2023-11-21T14:46:02;5.26;84.07
74940;HTU21D;63505;45.226;37.908;2023-11-21T14:48:29;5.25;84.05
74940;HTU21D;63505;45.226;37.908;2023-11-21T14:51:11;5.25;84.07
74940;HTU21D;63505;45.226;37.908;2023-11-21T14:53:55;5.24;84.05
74940;HTU21D;63505;45.226;37.908;2023-11-21T14:56:26;5.26;84.04
74940;HTU21D;63505;45.226;37.908;2023-11-21T14:58:57;5.27;84.00
74940;HTU21D;63505;45.226;37.908;2023-11-21T15:01:25;5.26;83.99
74940;HTU21D;63505;45.226;37.908;2023-11-21T15:04:10;5.26;83.98
74940;HTU21D;63505;45.226;37.908;2023-11-21T15:06:49;5.26;83.97
74940;HTU21D;63505;45.226;37.908;2023-11-21T15:09:18;5.24;83.93
74940;HTU21D;63505;45.226;37.908;2023-11-21T15:11:44;5.22;83.97
74940;HTU21D;63505;45.226;37.908;2023-11-21T15:14:10;5.22;83.96
74940;HTU21D;63505;45.226;37.908;2023-11-21T15:16:39;5.22;83.94
74940;HTU21D;63505;45.226;37.908;2023-11-21T15:19:12;5.25;83.92
74940;HTU21D;63505;45.226;37.908;2023-11-21T15:21:44;5.25;83.87
74940;HTU21D;63505;45.226;37.908;2023-11-21T15:24:12;5.25;83.87
74940;HTU21D;63505;45.226;37.908;2023-11-21T15:26:38;5.24;83.84
74940;HTU21D;63505;45.226;37.908;2023-11-21T15:29:05;5.23;83.81
74940;HTU21D;63505;45.226;37.908;2023-11-21T15:31:30;5.25;83.81
74940;HTU21D;63505;45.226;37.908;2023-11-21T15:33:56;5.25;83.77